Time;durP1;ratioP1;P1;durP2;ratioP2;P2;SDS_P1;SDS_P2;PMS_P1;PMS_P2;Temp;Humidity;BMP_temperature;BMP_pressure;BME280_temperature;BME280_humidity;BME280_pressure;Samples;Min_cycle;Max_cycle;Signal;HPM_P1;HPM_P2
2022/10/23 00:00:36;;;;;;;8.97;4.70;;;12.80;99.90;;;;;;2615690;54;20384;-79
2022/10/23 00:06:25;;;;;;;15.83;4.10;;;12.50;99.90;;;;;;2615823;54;20391;-80
2022/10/23 00:12:13;;;;;;;7.50;5.33;;;12.50;99.90;;;;;;2616900;54;20418;-81
2022/10/23 00:18:02;;;;;;;15.27;4.03;;;12.40;99.90;;;;;;2615578;54;20666;-80
2022/10/23 00:23:51;;;;;;;9.80;4.97;;;12.40;99.90;;;;;;2612784;54;20363;-76
2022/10/23 00:29:40;;;;;;;12.03;4.80;;;12.00;99.90;;;;;;2611872;54;20367;-76
2022/10/23 00:35:29;;;;;;;12.40;4.63;;;12.00;99.90;;;;;;2612112;54;20395;-75
2022/10/23 00:45:20;;;;;;;6.70;4.43;;;12.00;99.90;;;;;;2612859;54;20406;-80
2022/10/23 00:51:08;;;;;;;10.10;5.00;;;12.00;99.90;;;;;;2611781;54;20384;-80
2022/10/23 00:56:59;;;;;;;6.33;4.33;;;12.40;99.90;;;;;;2612048;54;21143;-79
2022/10/23 01:02:47;;;;;;;9.23;4.33;;;12.40;99.90;;;;;;2611957;54;20442;-80
2022/10/23 01:15:31;;;;;;;11.73;4.60;;;12.80;99.90;;;;;;2611552;54;20388;-79
2022/10/23 01:27:42;;;;;;;5.10;4.07;;;13.30;99.90;;;;;;2611893;54;20402;-79
2022/10/23 01:33:50;;;;;;;5.33;3.60;;;13.30;99.90;;;;;;2610252;54;20399;-78
2022/10/23 01:45:59;;;;;;;15.17;5.10;;;13.50;99.90;;;;;;2612152;39;20552;-76
2022/10/23 01:48:28;;;;;;;8.93;3.93;;;13.60;99.90;;;;;;2612344;39;20893;-77
2022/10/23 01:54:18;;;;;;;5.10;3.97;;;13.50;99.90;;;;;;2611968;39;20818;-76
2022/10/23 02:00:11;;;;;;;4.77;3.93;;;13.60;99.90;;;;;;2612207;54;20486;-78
2022/10/23 02:05:58;;;;;;;5.17;3.63;;;13.50;99.90;;;;;;2611236;54;20427;-77
2022/10/23 02:22:45;;;;;;;5.30;3.50;;;13.40;99.90;;;;;;2610728;54;21050;-77
2022/10/23 02:28:44;;;;;;;12.50;4.33;;;13.60;99.90;;;;;;2612731;54;20362;-77
2022/10/23 02:34:32;;;;;;;4.33;3.13;;;13.80;99.90;;;;;;2610905;54;20391;-76
2022/10/23 02:40:19;;;;;;;7.80;3.67;;;13.90;99.90;;;;;;2611412;54;20485;-78
2022/10/23 03:02:24;;;;;;;8.10;3.87;;;13.50;99.90;;;;;;2610583;54;21023;-78
2022/10/23 03:08:13;;;;;;;6.77;3.33;;;13.60;99.90;;;;;;2610273;54;20413;-77
2022/10/23 03:14:01;;;;;;;8.50;3.83;;;13.40;99.90;;;;;;2611372;54;20598;-77
2022/10/23 03:19:48;;;;;;;5.30;3.17;;;13.30;99.90;;;;;;2610604;54;20555;-78
2022/10/23 03:25:35;;;;;;;8.40;3.93;;;13.10;99.90;;;;;;2612195;39;20706;-77
2022/10/23 03:31:22;;;;;;;4.10;3.70;;;12.80;99.90;;;;;;2612008;54;20281;-79
2022/10/23 03:37:10;;;;;;;6.10;3.37;;;12.70;99.90;;;;;;2612564;54;20154;-79
2022/10/23 03:42:57;;;;;;;11.17;3.90;;;12.60;99.90;;;;;;2612812;54;20147;-78
2022/10/23 03:48:45;;;;;;;6.10;3.37;;;12.50;99.90;;;;;;2612879;54;20234;-79
2022/10/23 03:54:33;;;;;;;6.00;4.00;;;12.40;99.90;;;;;;2612288;54;20157;-78
2022/10/23 04:00:22;;;;;;;7.50;3.70;;;12.30;99.90;;;;;;2617091;54;20450;-79
2022/10/23 04:06:09;;;;;;;5.93;3.50;;;12.20;99.90;;;;;;2622592;31;20794;-81
2022/10/23 04:11:57;;;;;;;12.87;11.57;;;12.10;99.90;;;;;;2616961;54;20154;-81
2022/10/23 04:17:45;;;;;;;7.43;6.40;;;12.00;99.90;;;;;;2616099;54;20161;-79
2022/10/23 04:23:34;;;;;;;9.23;5.10;;;11.90;99.90;;;;;;2612137;54;20148;-80
2022/10/23 04:29:23;;;;;;;13.43;4.80;;;11.90;99.90;;;;;;2611661;54;20403;-78
2022/10/23 04:35:10;;;;;;;6.97;4.30;;;12.10;99.90;;;;;;2614119;54;21103;-78
2022/10/23 04:40:58;;;;;;;5.90;4.13;;;12.30;99.90;;;;;;2614104;54;20158;-79
2022/10/23 04:43:49;;;;;;;6.30;4.70;;;12.30;99.90;;;;;;2613654;54;20511;-78
2022/10/23 04:46:15;;;;;;;6.20;4.67;;;12.20;99.90;;;;;;2613239;54;20146;-78
2022/10/23 04:52:02;;;;;;;5.83;3.90;;;12.10;99.90;;;;;;2614020;54;20125;-77
2022/10/23 04:57:51;;;;;;;7.83;4.80;;;12.00;99.90;;;;;;2618040;54;20134;-80
2022/10/23 05:03:39;;;;;;;7.70;3.80;;;11.90;99.90;;;;;;2614624;54;20435;-77
2022/10/23 05:09:27;;;;;;;4.50;3.27;;;12.00;99.90;;;;;;2614070;54;20154;-77
2022/10/23 05:15:15;;;;;;;6.07;4.20;;;11.90;99.90;;;;;;2613567;54;20651;-76
2022/10/23 05:27:36;;;;;;;7.17;4.93;;;11.60;99.90;;;;;;2613853;54;21063;-77
2022/10/23 05:33:24;;;;;;;10.77;5.00;;;11.70;99.90;;;;;;2615447;39;20603;-80
2022/10/23 05:39:12;;;;;;;9.90;4.57;;;11.60;99.90;;;;;;2612295;39;20777;-77
2022/10/23 05:48:22;;;;;;;8.50;5.03;;;11.50;99.90;;;;;;2612588;54;20394;-77
2022/10/23 05:54:10;;;;;;;7.87;5.50;;;11.70;99.90;;;;;;2614255;54;20142;-79
2022/10/23 05:59:58;;;;;;;8.67;5.60;;;11.70;99.90;;;;;;2612977;54;20130;-79
2022/10/23 06:05:50;;;;;;;6.50;4.93;;;11.60;99.90;;;;;;2612466;54;20121;-80
2022/10/23 06:11:37;;;;;;;9.70;5.40;;;11.70;99.90;;;;;;2611558;54;20380;-80
2022/10/23 06:17:27;;;;;;;6.17;4.77;;;11.60;99.90;;;;;;2614648;54;20662;-81
2022/10/23 06:23:15;;;;;;;8.33;4.80;;;11.80;99.90;;;;;;2616009;54;20483;-80
2022/10/23 06:29:03;;;;;;;7.43;4.23;;;12.00;99.90;;;;;;2616344;54;20134;-80
2022/10/23 06:34:51;;;;;;;5.93;4.73;;;12.70;99.90;;;;;;2612627;54;21032;-79
2022/10/23 06:40:39;;;;;;;10.13;4.00;;;13.20;99.90;;;;;;2612114;54;20262;-77
2022/10/23 06:43:49;;;;;;;9.80;4.00;;;13.40;99.90;;;;;;2612332;54;20510;-78
2022/10/23 06:46:17;;;;;;;8.43;4.37;;;13.80;99.90;;;;;;2612599;54;20462;-77
2022/10/23 06:52:06;;;;;;;6.27;4.23;;;14.40;99.90;;;;;;2612687;39;20747;-77
2022/10/23 06:57:54;;;;;;;4.37;3.53;;;14.50;99.90;;;;;;2615560;54;20395;-77
2022/10/23 07:03:42;;;;;;;10.03;4.40;;;14.60;99.90;;;;;;2615364;54;20150;-76
2022/10/23 07:09:30;;;;;;;5.73;3.30;;;14.70;99.90;;;;;;2615546;54;20288;-80
2022/10/23 07:15:17;;;;;;;5.10;3.50;;;14.70;99.90;;;;;;2615924;39;20504;-80
2022/10/23 07:21:05;;;;;;;8.10;3.53;;;14.60;99.90;;;;;;2612680;54;20150;-78
2022/10/23 07:26:53;;;;;;;7.63;3.57;;;14.40;99.90;;;;;;2613188;54;20134;-78
2022/10/23 07:32:42;;;;;;;8.17;4.30;;;14.20;99.90;;;;;;2615725;46;20135;-79
2022/10/23 07:38:29;;;;;;;10.57;4.20;;;14.20;99.90;;;;;;2614649;54;20454;-78
2022/10/23 07:48:26;;;;;;;10.47;4.10;;;14.20;99.90;;;;;;2614061;54;20427;-79
2022/10/23 07:54:13;;;;;;;9.10;4.13;;;14.60;99.90;;;;;;2614119;54;20419;-79
2022/10/23 08:00:01;;;;;;;4.80;2.90;;;15.10;99.90;;;;;;2614078;54;20138;-79
2022/10/23 08:05:49;;;;;;;4.83;3.30;;;15.60;99.90;;;;;;2614215;54;20123;-80
2022/10/23 08:11:37;;;;;;;5.87;3.53;;;15.90;99.90;;;;;;2614785;39;21364;-77
2022/10/23 08:17:25;;;;;;;6.67;3.83;;;16.30;99.90;;;;;;2613653;54;20238;-77
2022/10/23 08:23:17;;;;;;;3.73;3.43;;;16.80;99.90;;;;;;2614113;54;20445;-77
2022/10/23 08:29:05;;;;;;;9.97;6.60;;;17.10;99.90;;;;;;2613797;54;20415;-77
2022/10/23 08:34:53;;;;;;;5.33;3.97;;;17.60;99.90;;;;;;2614843;54;21065;-76
2022/10/23 08:40:46;;;;;;;6.80;4.33;;;18.10;99.90;;;;;;2614599;39;20237;-77
2022/10/23 08:43:53;;;;;;;5.50;4.33;;;18.60;99.90;;;;;;2613665;54;20527;-77
2022/10/23 08:49:55;;;;;;;4.73;4.27;;;18.70;99.90;;;;;;2614707;31;20882;-77
2022/10/23 09:02:25;;;;;;;5.10;4.70;;;19.80;99.90;;;;;;2614180;54;20370;-76
2022/10/23 09:08:19;;;;;;;5.00;4.60;;;19.60;99.90;;;;;;2613570;39;20883;-79
2022/10/23 09:14:26;;;;;;;7.83;5.00;;;19.30;99.90;;;;;;2613332;54;20383;-78
2022/10/23 09:26:38;;;;;;;5.60;4.83;;;18.80;99.90;;;;;;2613641;54;20476;-78
2022/10/23 09:32:36;;;;;;;4.87;4.40;;;18.70;99.90;;;;;;2611636;54;20387;-78
2022/10/23 09:38:32;;;;;;;7.73;4.60;;;18.60;99.90;;;;;;2613773;54;20391;-79
2022/10/23 09:48:18;;;;;;;4.37;4.07;;;18.90;99.90;;;;;;2613733;39;20755;-76
2022/10/23 10:00:24;;;;;;;5.27;4.87;;;19.00;99.90;;;;;;2612914;54;20967;-76
2022/10/23 10:12:50;;;;;;;4.37;4.10;;;19.20;99.90;;;;;;2617352;54;20507;-79
2022/10/23 10:25:37;;;;;;;7.77;4.10;;;19.40;99.90;;;;;;2616943;39;20784;-77
2022/10/23 10:31:49;;;;;;;4.63;4.33;;;19.40;99.90;;;;;;2613183;54;20972;-76
2022/10/23 11:00:53;;;;;;;5.33;4.83;;;19.60;99.90;;;;;;2614120;54;20404;-76
2022/10/23 11:06:44;;;;;;;13.50;4.93;;;19.80;99.90;;;;;;2613385;54;20363;-76
2022/10/23 11:12:32;;;;;;;4.80;4.40;;;19.60;99.90;;;;;;2612475;54;20531;-75
2022/10/23 11:18:27;;;;;;;4.80;4.40;;;19.70;99.90;;;;;;2613348;39;20619;-77
2022/10/23 11:30:39;;;;;;;5.23;4.80;;;20.30;99.90;;;;;;2617358;54;20384;-78
2022/10/23 11:36:49;;;;;;;6.87;5.23;;;20.20;98.60;;;;;;2615716;54;20174;-79
2022/10/23 11:42:39;;;;;;;5.20;4.80;;;20.20;99.90;;;;;;2613594;54;20515;-79
2022/10/23 11:48:37;;;;;;;6.33;5.63;;;20.40;99.90;;;;;;2614857;39;20785;-78
2022/10/23 11:58:11;;;;;;;6.03;4.53;;;20.60;96.00;;;;;;2613409;54;20423;-79
2022/10/23 12:08:17;;;;;;;4.87;4.30;;;20.60;91.30;;;;;;2613738;39;20765;-78
2022/10/23 12:20:52;;;;;;;5.67;5.17;;;20.60;89.20;;;;;;2614676;54;20438;-78
2022/10/23 12:39:52;;;;;;;7.13;6.57;;;22.60;64.50;;;;;;2615562;54;20383;-80
2022/10/23 13:02:20;;;;;;;6.73;6.13;;;21.30;73.60;;;;;;2614714;54;20400;-78
2022/10/23 13:08:10;;;;;;;9.70;6.67;;;21.40;76.00;;;;;;2613849;54;20434;-79
2022/10/23 13:13:57;;;;;;;7.33;6.03;;;21.30;77.50;;;;;;2613031;54;21735;-78
2022/10/23 13:17:00;;;;;;;6.50;6.10;;;21.30;76.30;;;;;;2613175;54;20411;-78
2022/10/23 13:19:26;;;;;;;13.00;7.00;;;21.60;77.60;;;;;;2612628;47;20189;-77
2022/10/23 13:25:20;;;;;;;7.20;6.23;;;21.90;71.70;;;;;;2613116;54;20387;-78
2022/10/23 13:31:11;;;;;;;12.90;5.90;;;21.20;78.90;;;;;;2612748;39;20796;-79
2022/10/23 13:37:01;;;;;;;6.23;5.70;;;20.90;87.10;;;;;;2613561;46;20422;-77
2022/10/23 13:42:50;;;;;;;6.90;6.47;;;20.80;88.00;;;;;;2613731;54;20409;-78
2022/10/23 13:48:37;;;;;;;7.73;6.30;;;20.80;88.20;;;;;;2614481;54;20390;-78
2022/10/23 13:54:27;;;;;;;6.93;6.33;;;20.50;88.50;;;;;;2616064;54;20203;-77
2022/10/23 14:00:16;;;;;;;6.43;5.47;;;20.40;89.00;;;;;;2613748;54;20397;-78
2022/10/23 14:06:04;;;;;;;6.10;5.60;;;20.40;91.00;;;;;;2613371;54;20380;-79
2022/10/23 14:11:51;;;;;;;6.03;5.53;;;20.40;89.70;;;;;;2614307;54;20422;-78
2022/10/23 14:17:39;;;;;;;6.40;5.80;;;20.40;89.50;;;;;;2613631;54;20282;-79
2022/10/23 14:23:27;;;;;;;6.50;6.00;;;20.20;90.00;;;;;;2616684;39;20512;-77
2022/10/23 14:29:14;;;;;;;8.87;5.07;;;20.20;92.10;;;;;;2616165;54;20123;-78
2022/10/23 14:35:02;;;;;;;6.33;5.80;;;20.10;92.70;;;;;;2616191;54;20164;-77
2022/10/23 14:40:50;;;;;;;10.03;5.60;;;20.10;92.40;;;;;;2614979;47;20430;-78
2022/10/23 14:46:38;;;;;;;6.37;5.87;;;19.90;92.70;;;;;;2613022;54;20190;-78
2022/10/23 14:52:26;;;;;;;7.30;5.37;;;19.80;94.20;;;;;;2615219;39;20557;-80
2022/10/23 14:58:14;;;;;;;6.20;5.60;;;19.90;95.00;;;;;;2613979;54;20732;-77
2022/10/23 15:04:02;;;;;;;8.83;5.00;;;19.70;95.30;;;;;;2614660;54;20920;-77
2022/10/23 15:09:50;;;;;;;5.83;5.33;;;19.80;94.80;;;;;;2613176;54;20164;-79
2022/10/23 15:15:38;;;;;;;14.20;5.30;;;19.60;96.20;;;;;;2614696;54;20498;-79
2022/10/23 15:21:26;;;;;;;6.77;6.13;;;19.60;97.80;;;;;;2614790;54;20151;-79
2022/10/23 15:27:14;;;;;;;7.83;6.27;;;19.50;98.40;;;;;;2615271;54;20126;-78
2022/10/23 15:33:02;;;;;;;5.60;4.50;;;19.40;99.90;;;;;;2614742;54;20177;-78
2022/10/23 15:38:50;;;;;;;6.70;3.20;;;19.00;99.90;;;;;;2613180;54;20418;-77
2022/10/23 15:48:59;;;;;;;4.30;3.43;;;18.40;99.90;;;;;;2613535;54;20991;-78
2022/10/23 15:54:46;;;;;;;7.53;3.73;;;18.10;99.90;;;;;;2613440;39;20558;-76
2022/10/23 16:00:35;;;;;;;10.17;4.20;;;18.10;99.90;;;;;;2612149;54;20193;-78
2022/10/23 16:06:23;;;;;;;5.20;3.27;;;18.20;99.90;;;;;;2611975;54;20403;-78
2022/10/23 16:12:10;;;;;;;12.73;4.27;;;17.90;99.90;;;;;;2612612;54;20238;-77
2022/10/23 16:17:58;;;;;;;9.37;3.40;;;17.60;99.90;;;;;;2617058;54;20135;-80
2022/10/23 16:23:47;;;;;;;14.03;3.20;;;17.60;99.90;;;;;;2614782;39;20559;-81
2022/10/23 16:29:34;;;;;;;5.77;3.70;;;17.30;99.90;;;;;;2616285;54;20395;-80
2022/10/23 16:35:22;;;;;;;4.50;3.10;;;17.40;99.90;;;;;;2612739;54;20115;-79
2022/10/23 16:41:11;;;;;;;12.37;3.63;;;17.20;99.90;;;;;;2616328;54;20388;-79
2022/10/23 16:44:27;;;;;;;8.83;4.20;;;17.20;99.90;;;;;;2617344;54;20400;-78
2022/10/23 16:46:52;;;;;;;5.80;4.03;;;17.20;99.90;;;;;;2617088;39;20530;-79
2022/10/23 16:52:41;;;;;;;9.43;4.13;;;17.10;99.90;;;;;;2617242;54;20130;-79
2022/10/23 16:58:28;;;;;;;10.83;4.37;;;17.00;99.90;;;;;;2616606;54;20422;-79
2022/10/23 17:04:18;;;;;;;6.43;3.90;;;17.00;99.90;;;;;;2616555;54;20166;-79
2022/10/23 17:10:06;;;;;;;8.37;5.37;;;17.20;99.90;;;;;;2615244;54;20398;-81
2022/10/23 17:22:27;;;;;;;7.77;4.30;;;16.60;99.90;;;;;;2618579;54;20438;-84
2022/10/23 17:28:15;;;;;;;10.30;5.13;;;16.30;99.90;;;;;;2619365;54;20137;-85
2022/10/23 17:34:06;;;;;;;9.70;5.57;;;16.20;99.90;;;;;;2617780;54;20403;-85
2022/10/23 17:39:55;;;;;;;12.63;4.33;;;16.30;99.90;;;;;;2617239;54;20423;-84
2022/10/23 17:49:05;;;;;;;6.70;4.47;;;16.40;99.90;;;;;;2615452;54;20446;-81
2022/10/23 17:54:53;;;;;;;9.23;4.40;;;16.20;99.90;;;;;;2613559;54;20426;-80
2022/10/23 18:00:41;;;;;;;5.40;4.53;;;16.30;99.90;;;;;;2615219;54;20165;-83
2022/10/23 18:06:33;;;;;;;5.60;4.40;;;16.20;99.90;;;;;;2615259;39;20767;-81
2022/10/23 18:12:21;;;;;;;11.77;5.20;;;16.30;99.90;;;;;;2614791;54;20443;-82
2022/10/23 18:18:09;;;;;;;7.90;3.70;;;16.30;99.90;;;;;;2615760;31;20833;-81
2022/10/23 18:23:59;;;;;;;5.90;4.43;;;16.30;99.90;;;;;;2617519;39;20755;-82
2022/10/23 18:29:48;;;;;;;6.73;3.80;;;16.20;99.90;;;;;;2617527;54;20921;-81
2022/10/23 18:35:36;;;;;;;6.50;3.67;;;16.30;99.90;;;;;;2616055;54;20391;-81
2022/10/23 18:41:24;;;;;;;9.30;4.57;;;16.10;99.90;;;;;;2614775;54;20383;-80
2022/10/23 18:47:28;;;;;;;7.37;3.90;;;16.10;99.90;;;;;;2613781;54;20399;-77
2022/10/23 18:53:15;;;;;;;12.90;4.20;;;16.40;99.90;;;;;;2614721;54;20140;-77
2022/10/23 18:59:05;;;;;;;4.27;3.00;;;16.40;99.90;;;;;;2615226;54;20135;-80
2022/10/23 19:04:52;;;;;;;9.30;3.70;;;16.40;99.90;;;;;;2613604;39;20791;-79
2022/10/23 19:10:42;;;;;;;5.37;3.50;;;16.50;99.90;;;;;;2612219;39;20795;-80
2022/10/23 19:16:36;;;;;;;7.50;3.10;;;16.40;99.90;;;;;;2611825;54;20399;-80
2022/10/23 19:19:39;;;;;;;3.57;2.50;;;16.60;99.90;;;;;;2612914;39;21030;-80
2022/10/23 19:22:08;;;;;;;7.43;3.30;;;16.60;99.90;;;;;;2613435;47;20435;-80
2022/10/23 19:27:58;;;;;;;7.03;3.40;;;16.60;99.90;;;;;;2612695;54;20391;-80
2022/10/23 19:33:47;;;;;;;6.10;2.60;;;16.60;99.90;;;;;;2612092;54;20411;-82
2022/10/23 19:39:35;;;;;;;5.03;2.53;;;16.70;99.90;;;;;;2611667;54;20402;-77
2022/10/23 19:48:58;;;;;;;5.57;2.60;;;16.80;99.90;;;;;;2616139;39;20790;-77
2022/10/23 19:54:45;;;;;;;5.80;1.87;;;16.90;99.90;;;;;;2613320;54;20415;-77
2022/10/23 20:00:34;;;;;;;4.73;2.43;;;16.80;99.90;;;;;;2614991;39;20579;-76
2022/10/23 20:12:36;;;;;;;4.80;2.07;;;17.00;99.90;;;;;;2611620;54;20380;-76
2022/10/23 20:18:24;;;;;;;3.63;2.33;;;17.00;99.90;;;;;;2611310;54;20133;-78
2022/10/23 20:24:14;;;;;;;7.50;2.73;;;17.10;99.90;;;;;;2612701;54;20370;-77
2022/10/23 20:30:03;;;;;;;6.33;2.80;;;17.30;99.90;;;;;;2611067;54;20403;-76
2022/10/23 20:35:51;;;;;;;6.50;3.10;;;17.30;99.90;;;;;;2611646;54;20367;-77
2022/10/23 20:41:40;;;;;;;7.83;3.53;;;17.40;99.90;;;;;;2611965;39;20827;-78
2022/10/23 20:47:48;;;;;;;3.53;2.67;;;17.40;99.90;;;;;;2610562;54;20387;-78
2022/10/23 20:53:37;;;;;;;6.37;2.57;;;17.30;99.90;;;;;;2609810;54;20741;-75
2022/10/23 20:59:24;;;;;;;7.63;2.50;;;17.40;99.90;;;;;;2610372;54;20387;-78
2022/10/23 21:05:12;;;;;;;6.87;2.93;;;17.10;99.90;;;;;;2612175;54;20434;-81
2022/10/23 21:10:59;;;;;;;9.17;3.27;;;16.70;99.90;;;;;;2615851;54;20161;-81
2022/10/23 21:16:46;;;;;;;5.67;3.30;;;16.00;99.90;;;;;;2614247;54;20422;-81
2022/10/23 21:22:34;;;;;;;8.30;3.10;;;16.00;99.90;;;;;;2616979;54;20122;-80
2022/10/23 21:28:22;;;;;;;8.73;4.40;;;16.00;99.90;;;;;;2614269;54;20169;-82
2022/10/23 21:34:10;;;;;;;8.63;3.43;;;16.10;99.90;;;;;;2612985;54;20130;-81
2022/10/23 21:39:58;;;;;;;6.23;3.10;;;15.90;99.90;;;;;;2613383;39;20692;-81
2022/10/23 21:49:11;;;;;;;8.53;3.73;;;15.90;99.90;;;;;;2615531;54;20438;-79
2022/10/23 21:54:59;;;;;;;7.47;3.43;;;15.90;99.90;;;;;;2615162;54;20399;-79
2022/10/23 22:00:46;;;;;;;9.63;4.03;;;15.80;99.90;;;;;;2613853;39;20744;-78
2022/10/23 22:06:34;;;;;;;8.63;3.50;;;15.80;99.90;;;;;;2614761;54;20134;-80
2022/10/23 22:12:22;;;;;;;8.13;3.07;;;16.00;99.90;;;;;;2617978;31;20829;-79
2022/10/23 22:18:10;;;;;;;5.87;3.07;;;15.90;99.90;;;;;;2614525;54;20247;-79
2022/10/23 22:23:59;;;;;;;6.27;3.53;;;15.70;99.90;;;;;;2613913;54;20165;-79
2022/10/23 22:29:47;;;;;;;10.33;4.13;;;16.00;99.90;;;;;;2613255;54;20391;-79
2022/10/23 22:35:35;;;;;;;8.83;5.10;;;15.90;99.90;;;;;;2614307;54;20146;-79
2022/10/23 22:41:23;;;;;;;10.33;4.53;;;16.10;99.90;;;;;;2615571;54;20165;-79
2022/10/23 22:44:43;;;;;;;4.80;3.40;;;16.10;99.90;;;;;;2615087;54;20435;-78
2022/10/23 22:47:08;;;;;;;7.93;4.20;;;16.10;99.90;;;;;;2614251;47;20198;-80
2022/10/23 22:52:56;;;;;;;8.30;3.53;;;16.10;99.90;;;;;;2614937;54;20133;-78
2022/10/23 22:58:44;;;;;;;12.50;4.90;;;15.90;99.90;;;;;;2615462;54;20137;-77
2022/10/23 23:04:32;;;;;;;7.40;3.80;;;16.20;99.90;;;;;;2615383;54;20491;-78
2022/10/23 23:10:20;;;;;;;10.73;3.93;;;16.20;99.90;;;;;;2615546;54;20718;-78
2022/10/23 23:22:39;;;;;;;8.30;4.40;;;16.10;99.90;;;;;;2613743;31;20805;-78
2022/10/23 23:28:26;;;;;;;7.50;3.30;;;16.30;99.90;;;;;;2612652;54;20134;-78
2022/10/23 23:34:14;;;;;;;9.50;3.87;;;16.30;99.90;;;;;;2613611;54;20246;-78
2022/10/23 23:40:02;;;;;;;5.20;3.23;;;16.30;99.90;;;;;;2613064;54;20130;-79
2022/10/23 23:49:12;;;;;;;9.17;3.37;;;16.40;99.90;;;;;;2612581;54;20378;-80
2022/10/23 23:55:00;;;;;;;6.37;3.30;;;16.50;99.90;;;;;;2613031;54;20129;-79
